WetterOnline ( https://www.wetteronline.de )

Wetter aktuell Chiemgau

Aktuelles Wetter: Chieming (553m)

6-stündlich | Neueste Meldungen
Ortszeit Temperatur Wetter
Di, 27.07. 8:00 16.9° C bewölkt
Di, 27.07. 2:00 15.7° C bedeckt
Mo, 26.07. 20:00 22.6° C bedeckt
Mo, 26.07. 14:00 22.6° C leicht bewölkt
Mo, 26.07. 8:00 17.1° C bewölkt
Mo, 26.07. 2:00 15.4° C wolkig
So, 25.07. 20:00 19.5° C leichter Regen
So, 25.07. 14:00 23.0° C wolkig
Ortszeit Temperatur Wetter
Di, 27.07. 11:30 21.6° C leicht bewölkt
Di, 27.07. 11:20 21.6° C leicht bewölkt
Di, 27.07. 11:10 21.4° C fast wolkenlos
Di, 27.07. 11:00 20.3° C leicht bewölkt
Di, 27.07. 10:50 20.3° C leicht bewölkt
Di, 27.07. 10:40 20.4° C leicht bewölkt
Di, 27.07. 10:30 20.0° C wolkenlos
Di, 27.07. 10:00 19.1° C leicht bewölkt
Di, 27.07. 9:30 18.6° C wolkig
Di, 27.07. 9:00 18.9° C wolkig
Di, 27.07. 8:30 17.7° C wolkig
Ortszeit Relative Feuchte Sichtweite
Di, 27.07. 8:00 84% >70 km
Di, 27.07. 2:00 95% 50 km
Mo, 26.07. 20:00 73% 40 km
Mo, 26.07. 14:00 74% 55 km
Mo, 26.07. 8:00 94% 30 km
Mo, 26.07. 2:00 99% 17 km
So, 25.07. 20:00 93% 20 km
So, 25.07. 14:00 63% 55 km
Ortszeit Relative Feuchte Sichtweite
Di, 27.07. 11:30 69% 45 km
Di, 27.07. 11:20 69% -
Di, 27.07. 11:10 72% -
Di, 27.07. 11:00 75% 60 km
Di, 27.07. 10:50 75% -
Di, 27.07. 10:40 76% -
Di, 27.07. 10:30 78% >70 km
Di, 27.07. 10:00 80% 30 km
Di, 27.07. 9:30 82% 45 km
Di, 27.07. 9:00 80% 65 km
Di, 27.07. 8:30 84% 55 km
Ortszeit Niederschlagsmenge Niederschlagsart
Di, 27.07. 8:00 44 l/m2 in 12 Std. Regen
Di, 27.07. 2:00 43 l/m2 in 6 Std. Regen
Mo, 26.07. 20:00 0.1 l/m2 in 12 Std. -
Mo, 26.07. 14:00 0.1 l/m2 in 6 Std. Regen
Mo, 26.07. 8:00 0.2 l/m2 in 12 Std. -
Mo, 26.07. 2:00 0.2 l/m2 in 6 Std. Regen
So, 25.07. 20:00 5 l/m2 in 12 Std. Regen
So, 25.07. 14:00 0.1 l/m2 in 6 Std. Niederschlag
Ortszeit Niederschlagsmenge Niederschlagsart
Di, 27.07. 11:30 0.0 l/m2 in 1 Std. -
Di, 27.07. 11:20 keine Meldung -
Di, 27.07. 11:10 keine Meldung -
Di, 27.07. 11:00 0.0 l/m2 in 1 Std. -
Di, 27.07. 10:50 keine Meldung -
Di, 27.07. 10:40 keine Meldung -
Di, 27.07. 10:30 0.0 l/m2 in 1 Std. -
Di, 27.07. 10:00 0.0 l/m2 in 1 Std. -
Di, 27.07. 9:30 0.0 l/m2 in 1 Std. -
Di, 27.07. 9:00 0.0 l/m2 in 1 Std. -
Di, 27.07. 8:30 0.0 l/m2 in 1 Std. -
Ortszeit Stärke Spitze Richtung
km/h Bft. km/h Grad Sektor
Di, 27.07. 8:00 4 1 18 160° S
Di, 27.07. 2:00 6 1 85 80° O
Mo, 26.07. 20:00 7 2 25 40° NO
Mo, 26.07. 14:00 11 2 22 280° W
Mo, 26.07. 8:00 4 1 14 40° NO
Mo, 26.07. 2:00 4 1 29 160° S
So, 25.07. 20:00 9 2 28 190° S
So, 25.07. 14:00 13 3 22 60° NO
Ortszeit Stärke Spitze Richtung
km/h Bft. km/h Grad Sektor
Di, 27.07. 11:30 9 2 15 30° NO
Di, 27.07. 11:20 9 2 - 30° NO
Di, 27.07. 11:10 7 2 - 70° O
Di, 27.07. 11:00 6 1 9 290° W
Di, 27.07. 10:50 6 1 - 290° W
Di, 27.07. 10:40 7 2 - 280° W
Di, 27.07. 10:30 6 1 7 280° W
Di, 27.07. 10:00 4 1 11 280° W
Di, 27.07. 9:30 6 1 9 280° W
Di, 27.07. 9:00 4 1 7 280° W
Di, 27.07. 8:30 4 1 7 190° S
Ortszeit Untergrenze Bedeckung Gattung
total tief tief mittel hoch
Di, 27.07. 8:00 6000 m 7/8 7/8 - - -
Di, 27.07. 2:00 3000 m 8/8 8/8 - - -
Mo, 26.07. 20:00 3000 m 8/8 8/8 - - -
Mo, 26.07. 14:00 6000 m 2/8 2/8 - - -
Mo, 26.07. 8:00 2700 m 8/8 5/8 - - -
Mo, 26.07. 2:00 8700 m 8/8 0/8 - - -
So, 25.07. 20:00 1020 m 7/8 1/8 - - -
So, 25.07. 14:00 4500 m 7/8 7/8 - - -
Ortszeit Bedeckungsgrad in Achtel und Wolkenuntergrenze
Di, 27.07. 11:30 2(690m)
Di, 27.07. 11:20 2(690m)
Di, 27.07. 11:10 1(690m)
Di, 27.07. 11:00 2(600m)
Di, 27.07. 10:50 2(600m)
Di, 27.07. 10:40 2(570m)
Di, 27.07. 10:30 keine Wolken
Di, 27.07. 10:00 5(9000m)
Di, 27.07. 9:30 4(8400m) 7(9000m) 7(10500m)
Di, 27.07. 9:00 7(6300m) 8(8400m) 8(9000m)
Di, 27.07. 8:30 3(6000m) 7(7200m) 7(8100m)
Ortszeit Luftdruck NN (hPa) Tendenz (hPa in 3 Std.)
Di, 27.07. 8:00 1016 + 0,1
Di, 27.07. 2:00 1016 - 0,6
Mo, 26.07. 20:00 1010 0,0
Mo, 26.07. 14:00 1012 + 0,4
Mo, 26.07. 8:00 1013 + 0,7
Mo, 26.07. 2:00 1013 + 0,6
So, 25.07. 20:00 1010 + 0,9
So, 25.07. 14:00 1009 - 1,3
Ortszeit Luftdruck NN (hPa) Tendenz (hPa in 3 Std.)
Di, 27.07. 11:30 1015 - 0,1
Di, 27.07. 11:20 1015 keine Meldung
Di, 27.07. 11:10 1015 keine Meldung
Di, 27.07. 11:00 1015 + 0,2
Di, 27.07. 10:50 1015 keine Meldung
Di, 27.07. 10:40 1015 keine Meldung
Di, 27.07. 10:30 1016 + 0,5
Di, 27.07. 10:00 1016 + 0,6
Di, 27.07. 9:30 1016 + 0,6
Di, 27.07. 9:00 1016 + 0,4
Di, 27.07. 8:30 1016 + 0,5
Ortszeit Schneehöhe (cm)
Di, 27.07. 8:00 -
Di, 27.07. 2:00 -
Mo, 26.07. 20:00 -
Mo, 26.07. 14:00 -
Mo, 26.07. 8:00 -
Mo, 26.07. 2:00 -
So, 25.07. 20:00 -
So, 25.07. 14:00 -
Ortszeit Schneehöhe (cm)
Di, 27.07. 11:30 -
Di, 27.07. 11:20 -
Di, 27.07. 11:10 -
Di, 27.07. 11:00 -
Di, 27.07. 10:50 -
Di, 27.07. 10:40 -
Di, 27.07. 10:30 -
Di, 27.07. 10:00 -
Di, 27.07. 9:30 -
Di, 27.07. 9:00 -
Di, 27.07. 8:30 -
Link zu dieser Seite / Seite empfehlen

Das Wetter in ...